sensor_id;sensor_type;location;lat;lon;timestamp;P1;durP1;ratioP1;P2;durP2;ratioP2
69837;SDS011;57135;51.992;4.476;2023-12-14T00:00:24;10.14;;;10.03;;
69837;SDS011;57135;51.992;4.476;2023-12-14T00:52:21;8.66;;;8.62;;
69837;SDS011;57135;51.992;4.476;2023-12-14T00:54:46;8.54;;;8.52;;
69837;SDS011;57135;51.992;4.476;2023-12-14T00:57:12;8.88;;;8.87;;
69837;SDS011;57135;51.992;4.476;2023-12-14T00:59:37;9.05;;;8.97;;
69837;SDS011;57135;51.992;4.476;2023-12-14T01:02:02;8.92;;;8.82;;
69837;SDS011;57135;51.992;4.476;2023-12-14T01:04:28;8.88;;;8.86;;
69837;SDS011;57135;51.992;4.476;2023-12-14T01:06:54;8.47;;;8.42;;
69837;SDS011;57135;51.992;4.476;2023-12-14T01:09:19;8.94;;;8.79;;
69837;SDS011;57135;51.992;4.476;2023-12-14T01:11:44;8.43;;;8.36;;
69837;SDS011;57135;51.992;4.476;2023-12-14T01:14:10;8.29;;;8.23;;
69837;SDS011;57135;51.992;4.476;2023-12-14T01:16:35;8.51;;;8.46;;
69837;SDS011;57135;51.992;4.476;2023-12-14T01:19:01;8.33;;;8.32;;
69837;SDS011;57135;51.992;4.476;2023-12-14T01:21:26;9.23;;;9.16;;
69837;SDS011;57135;51.992;4.476;2023-12-14T01:23:52;9.34;;;9.28;;
69837;SDS011;57135;51.992;4.476;2023-12-14T01:26:17;10.20;;;10.10;;
69837;SDS011;57135;51.992;4.476;2023-12-14T01:28:43;10.01;;;9.93;;
69837;SDS011;57135;51.992;4.476;2023-12-14T01:31:09;10.10;;;9.98;;
69837;SDS011;57135;51.992;4.476;2023-12-14T01:33:34;10.24;;;10.21;;
69837;SDS011;57135;51.992;4.476;2023-12-14T01:36:00;10.04;;;10.04;;
69837;SDS011;57135;51.992;4.476;2023-12-14T01:38:25;10.48;;;10.40;;
69837;SDS011;57135;51.992;4.476;2023-12-14T01:40:50;10.95;;;10.80;;
69837;SDS011;57135;51.992;4.476;2023-12-14T01:43:16;10.38;;;10.24;;
69837;SDS011;57135;51.992;4.476;2023-12-14T01:45:41;11.08;;;11.01;;
69837;SDS011;57135;51.992;4.476;2023-12-14T01:48:07;11.01;;;10.95;;
69837;SDS011;57135;51.992;4.476;2023-12-14T01:50:32;11.04;;;10.86;;
69837;SDS011;57135;51.992;4.476;2023-12-14T01:52:58;11.22;;;11.00;;
69837;SDS011;57135;51.992;4.476;2023-12-14T01:55:23;10.51;;;10.39;;
69837;SDS011;57135;51.992;4.476;2023-12-14T01:57:51;10.02;;;9.95;;
69837;SDS011;57135;51.992;4.476;2023-12-14T02:00:26;10.41;;;10.32;;
69837;SDS011;57135;51.992;4.476;2023-12-14T02:03:00;10.64;;;10.47;;
69837;SDS011;57135;51.992;4.476;2023-12-14T02:05:25;10.56;;;10.42;;
69837;SDS011;57135;51.992;4.476;2023-12-14T02:07:51;10.41;;;10.11;;
69837;SDS011;57135;51.992;4.476;2023-12-14T02:10:16;10.48;;;10.40;;
69837;SDS011;57135;51.992;4.476;2023-12-14T02:12:42;9.99;;;9.94;;
69837;SDS011;57135;51.992;4.476;2023-12-14T02:15:07;9.98;;;9.91;;
69837;SDS011;57135;51.992;4.476;2023-12-14T02:17:34;9.87;;;9.80;;
69837;SDS011;57135;51.992;4.476;2023-12-14T02:19:59;10.02;;;9.89;;
69837;SDS011;57135;51.992;4.476;2023-12-14T02:22:26;10.16;;;10.03;;
69837;SDS011;57135;51.992;4.476;2023-12-14T02:24:51;10.23;;;10.13;;
69837;SDS011;57135;51.992;4.476;2023-12-14T02:27:17;9.94;;;9.84;;
69837;SDS011;57135;51.992;4.476;2023-12-14T02:29:42;10.02;;;9.93;;
69837;SDS011;57135;51.992;4.476;2023-12-14T02:32:08;9.57;;;9.50;;
69837;SDS011;57135;51.992;4.476;2023-12-14T02:34:33;10.10;;;9.96;;
69837;SDS011;57135;51.992;4.476;2023-12-14T02:36:58;9.63;;;9.47;;
69837;SDS011;57135;51.992;4.476;2023-12-14T02:39:24;10.33;;;10.09;;
69837;SDS011;57135;51.992;4.476;2023-12-14T02:41:49;9.87;;;9.72;;
69837;SDS011;57135;51.992;4.476;2023-12-14T02:44:15;9.52;;;9.46;;
69837;SDS011;57135;51.992;4.476;2023-12-14T02:46:40;9.63;;;9.48;;
69837;SDS011;57135;51.992;4.476;2023-12-14T02:49:06;9.66;;;9.53;;
69837;SDS011;57135;51.992;4.476;2023-12-14T02:51:31;9.31;;;9.17;;
69837;SDS011;57135;51.992;4.476;2023-12-14T02:53:56;9.49;;;9.39;;
69837;SDS011;57135;51.992;4.476;2023-12-14T02:56:23;9.20;;;8.99;;
69837;SDS011;57135;51.992;4.476;2023-12-14T02:58:51;8.64;;;8.48;;
69837;SDS011;57135;51.992;4.476;2023-12-14T03:01:19;8.94;;;8.79;;
69837;SDS011;57135;51.992;4.476;2023-12-14T03:03:46;9.12;;;9.01;;
69837;SDS011;57135;51.992;4.476;2023-12-14T03:06:12;9.00;;;8.91;;
69837;SDS011;57135;51.992;4.476;2023-12-14T03:08:37;8.94;;;8.78;;
69837;SDS011;57135;51.992;4.476;2023-12-14T03:11:03;9.44;;;9.26;;
69837;SDS011;57135;51.992;4.476;2023-12-14T03:13:28;9.32;;;9.18;;
69837;SDS011;57135;51.992;4.476;2023-12-14T03:15:54;9.41;;;9.23;;
69837;SDS011;57135;51.992;4.476;2023-12-14T03:18:19;9.58;;;9.40;;
69837;SDS011;57135;51.992;4.476;2023-12-14T03:20:45;9.26;;;9.17;;
69837;SDS011;57135;51.992;4.476;2023-12-14T03:23:10;9.72;;;9.63;;
69837;SDS011;57135;51.992;4.476;2023-12-14T03:25:36;9.01;;;8.87;;
69837;SDS011;57135;51.992;4.476;2023-12-14T03:28:01;9.22;;;9.17;;
69837;SDS011;57135;51.992;4.476;2023-12-14T03:30:26;8.72;;;8.64;;
69837;SDS011;57135;51.992;4.476;2023-12-14T03:32:52;9.33;;;9.30;;
69837;SDS011;57135;51.992;4.476;2023-12-14T03:35:17;9.37;;;9.33;;
69837;SDS011;57135;51.992;4.476;2023-12-14T03:37:43;9.15;;;9.11;;
69837;SDS011;57135;51.992;4.476;2023-12-14T03:40:08;9.20;;;9.10;;
69837;SDS011;57135;51.992;4.476;2023-12-14T03:42:34;9.33;;;9.24;;
69837;SDS011;57135;51.992;4.476;2023-12-14T03:45:00;8.72;;;8.61;;
69837;SDS011;57135;51.992;4.476;2023-12-14T03:47:26;9.26;;;9.14;;
69837;SDS011;57135;51.992;4.476;2023-12-14T03:49:51;9.18;;;8.95;;
69837;SDS011;57135;51.992;4.476;2023-12-14T03:54:52;8.58;;;8.45;;
69837;SDS011;57135;51.992;4.476;2023-12-14T03:57:17;8.63;;;8.47;;
69837;SDS011;57135;51.992;4.476;2023-12-14T03:59:43;8.62;;;8.34;;
69837;SDS011;57135;51.992;4.476;2023-12-14T04:02:08;8.08;;;7.93;;
69837;SDS011;57135;51.992;4.476;2023-12-14T04:04:34;7.76;;;7.63;;
69837;SDS011;57135;51.992;4.476;2023-12-14T04:06:59;7.82;;;7.55;;
69837;SDS011;57135;51.992;4.476;2023-12-14T04:09:25;8.19;;;7.84;;
69837;SDS011;57135;51.992;4.476;2023-12-14T04:11:50;8.09;;;7.92;;
69837;SDS011;57135;51.992;4.476;2023-12-14T04:14:15;8.31;;;8.13;;
69837;SDS011;57135;51.992;4.476;2023-12-14T04:16:41;7.52;;;7.39;;
69837;SDS011;57135;51.992;4.476;2023-12-14T04:19:06;7.29;;;7.13;;
69837;SDS011;57135;51.992;4.476;2023-12-14T04:21:35;7.80;;;7.63;;
69837;SDS011;57135;51.992;4.476;2023-12-14T04:24:01;7.08;;;6.95;;
69837;SDS011;57135;51.992;4.476;2023-12-14T04:26:27;6.95;;;6.83;;
69837;SDS011;57135;51.992;4.476;2023-12-14T04:28:53;6.51;;;6.34;;
69837;SDS011;57135;51.992;4.476;2023-12-14T04:31:18;6.42;;;6.26;;
69837;SDS011;57135;51.992;4.476;2023-12-14T04:33:45;5.82;;;5.75;;
69837;SDS011;57135;51.992;4.476;2023-12-14T04:36:11;5.59;;;5.49;;
69837;SDS011;57135;51.992;4.476;2023-12-14T04:38:36;5.05;;;4.98;;
69837;SDS011;57135;51.992;4.476;2023-12-14T04:41:02;5.06;;;4.97;;
69837;SDS011;57135;51.992;4.476;2023-12-14T04:43:27;4.81;;;4.72;;
69837;SDS011;57135;51.992;4.476;2023-12-14T04:45:55;4.68;;;4.63;;
69837;SDS011;57135;51.992;4.476;2023-12-14T04:48:21;5.15;;;5.10;;
69837;SDS011;57135;51.992;4.476;2023-12-14T04:50:46;5.02;;;4.94;;
69837;SDS011;57135;51.992;4.476;2023-12-14T04:53:12;5.31;;;5.21;;
69837;SDS011;57135;51.992;4.476;2023-12-14T04:55:37;5.01;;;4.90;;
69837;SDS011;57135;51.992;4.476;2023-12-14T04:58:02;5.30;;;5.19;;
69837;SDS011;57135;51.992;4.476;2023-12-14T05:00:28;5.03;;;4.98;;
69837;SDS011;57135;51.992;4.476;2023-12-14T05:02:53;5.03;;;4.95;;
69837;SDS011;57135;51.992;4.476;2023-12-14T05:05:19;5.22;;;5.10;;
69837;SDS011;57135;51.992;4.476;2023-12-14T05:07:44;5.17;;;5.05;;
69837;SDS011;57135;51.992;4.476;2023-12-14T05:10:10;5.28;;;5.17;;
69837;SDS011;57135;51.992;4.476;2023-12-14T05:12:36;4.91;;;4.83;;
69837;SDS011;57135;51.992;4.476;2023-12-14T05:15:01;5.22;;;5.12;;
69837;SDS011;57135;51.992;4.476;2023-12-14T05:17:28;5.27;;;5.12;;
69837;SDS011;57135;51.992;4.476;2023-12-14T05:19:53;4.59;;;4.48;;
69837;SDS011;57135;51.992;4.476;2023-12-14T05:22:18;4.42;;;4.34;;
69837;SDS011;57135;51.992;4.476;2023-12-14T05:24:47;4.51;;;4.44;;
69837;SDS011;57135;51.992;4.476;2023-12-14T05:27:13;4.33;;;4.30;;
69837;SDS011;57135;51.992;4.476;2023-12-14T05:29:39;4.68;;;4.60;;
69837;SDS011;57135;51.992;4.476;2023-12-14T05:32:07;4.40;;;4.33;;
69837;SDS011;57135;51.992;4.476;2023-12-14T05:34:33;4.30;;;4.27;;
69837;SDS011;57135;51.992;4.476;2023-12-14T05:36:58;4.35;;;4.33;;
69837;SDS011;57135;51.992;4.476;2023-12-14T05:39:24;4.73;;;4.67;;
69837;SDS011;57135;51.992;4.476;2023-12-14T05:41:49;4.68;;;4.65;;
69837;SDS011;57135;51.992;4.476;2023-12-14T05:44:15;4.57;;;4.56;;
69837;SDS011;57135;51.992;4.476;2023-12-14T05:46:40;4.40;;;4.40;;
69837;SDS011;57135;51.992;4.476;2023-12-14T05:49:06;4.73;;;4.73;;
69837;SDS011;57135;51.992;4.476;2023-12-14T05:51:32;5.22;;;5.22;;
69837;SDS011;57135;51.992;4.476;2023-12-14T05:53:58;5.26;;;5.25;;
69837;SDS011;57135;51.992;4.476;2023-12-14T05:56:24;5.48;;;5.47;;
69837;SDS011;57135;51.992;4.476;2023-12-14T05:58:50;5.82;;;5.79;;
69837;SDS011;57135;51.992;4.476;2023-12-14T06:01:17;5.90;;;5.89;;
69837;SDS011;57135;51.992;4.476;2023-12-14T06:03:43;5.78;;;5.78;;
69837;SDS011;57135;51.992;4.476;2023-12-14T06:06:09;5.26;;;5.26;;
69837;SDS011;57135;51.992;4.476;2023-12-14T06:08:34;6.01;;;5.98;;
69837;SDS011;57135;51.992;4.476;2023-12-14T06:11:00;5.84;;;5.79;;
69837;SDS011;57135;51.992;4.476;2023-12-14T06:13:25;5.82;;;5.81;;
69837;SDS011;57135;51.992;4.476;2023-12-14T06:15:51;5.53;;;5.49;;
69837;SDS011;57135;51.992;4.476;2023-12-14T06:18:16;5.66;;;5.62;;
69837;SDS011;57135;51.992;4.476;2023-12-14T06:20:42;5.68;;;5.66;;
69837;SDS011;57135;51.992;4.476;2023-12-14T06:23:07;5.92;;;5.87;;
69837;SDS011;57135;51.992;4.476;2023-12-14T06:25:33;5.29;;;5.26;;
69837;SDS011;57135;51.992;4.476;2023-12-14T06:27:58;5.29;;;5.28;;
69837;SDS011;57135;51.992;4.476;2023-12-14T06:30:23;4.72;;;4.71;;
69837;SDS011;57135;51.992;4.476;2023-12-14T06:32:49;5.70;;;5.65;;
69837;SDS011;57135;51.992;4.476;2023-12-14T06:35:14;5.30;;;5.27;;
69837;SDS011;57135;51.992;4.476;2023-12-14T06:37:40;5.58;;;5.55;;
69837;SDS011;57135;51.992;4.476;2023-12-14T06:40:07;5.63;;;5.62;;
69837;SDS011;57135;51.992;4.476;2023-12-14T06:42:33;5.32;;;5.32;;
69837;SDS011;57135;51.992;4.476;2023-12-14T06:45:00;5.12;;;5.12;;
69837;SDS011;57135;51.992;4.476;2023-12-14T06:47:27;5.23;;;5.21;;
69837;SDS011;57135;51.992;4.476;2023-12-14T06:49:53;5.20;;;5.20;;
69837;SDS011;57135;51.992;4.476;2023-12-14T06:52:18;5.43;;;5.41;;
69837;SDS011;57135;51.992;4.476;2023-12-14T06:54:44;5.43;;;5.41;;
69837;SDS011;57135;51.992;4.476;2023-12-14T06:57:10;5.30;;;5.26;;
69837;SDS011;57135;51.992;4.476;2023-12-14T06:59:35;5.49;;;5.45;;
69837;SDS011;57135;51.992;4.476;2023-12-14T07:02:00;6.03;;;6.01;;
69837;SDS011;57135;51.992;4.476;2023-12-14T07:04:26;5.70;;;5.69;;
69837;SDS011;57135;51.992;4.476;2023-12-14T07:06:51;5.61;;;5.59;;
69837;SDS011;57135;51.992;4.476;2023-12-14T07:09:17;6.10;;;6.09;;
69837;SDS011;57135;51.992;4.476;2023-12-14T07:11:43;6.32;;;6.31;;
69837;SDS011;57135;51.992;4.476;2023-12-14T07:14:08;5.97;;;5.95;;
69837;SDS011;57135;51.992;4.476;2023-12-14T07:16:34;5.89;;;5.86;;
69837;SDS011;57135;51.992;4.476;2023-12-14T07:19:00;6.23;;;6.17;;
69837;SDS011;57135;51.992;4.476;2023-12-14T07:21:25;6.30;;;6.26;;
69837;SDS011;57135;51.992;4.476;2023-12-14T07:23:50;6.30;;;6.29;;
69837;SDS011;57135;51.992;4.476;2023-12-14T07:26:16;6.18;;;6.18;;
69837;SDS011;57135;51.992;4.476;2023-12-14T07:28:41;6.21;;;6.21;;
69837;SDS011;57135;51.992;4.476;2023-12-14T07:31:07;5.99;;;5.97;;
69837;SDS011;57135;51.992;4.476;2023-12-14T07:33:32;6.14;;;6.13;;
69837;SDS011;57135;51.992;4.476;2023-12-14T07:35:58;6.27;;;6.27;;
69837;SDS011;57135;51.992;4.476;2023-12-14T07:38:23;6.33;;;6.32;;
69837;SDS011;57135;51.992;4.476;2023-12-14T07:40:48;6.31;;;6.26;;
69837;SDS011;57135;51.992;4.476;2023-12-14T07:43:15;6.18;;;6.13;;
69837;SDS011;57135;51.992;4.476;2023-12-14T07:45:41;6.02;;;5.98;;
69837;SDS011;57135;51.992;4.476;2023-12-14T07:48:06;6.17;;;6.13;;
69837;SDS011;57135;51.992;4.476;2023-12-14T07:50:32;6.20;;;6.16;;
69837;SDS011;57135;51.992;4.476;2023-12-14T07:52:57;6.48;;;6.44;;
69837;SDS011;57135;51.992;4.476;2023-12-14T07:55:23;6.22;;;6.21;;
69837;SDS011;57135;51.992;4.476;2023-12-14T07:57:48;6.20;;;6.20;;
69837;SDS011;57135;51.992;4.476;2023-12-14T08:00:15;7.15;;;7.10;;
69837;SDS011;57135;51.992;4.476;2023-12-14T08:02:40;6.56;;;6.50;;
69837;SDS011;57135;51.992;4.476;2023-12-14T08:05:07;6.03;;;6.02;;
69837;SDS011;57135;51.992;4.476;2023-12-14T08:07:32;6.36;;;6.33;;
69837;SDS011;57135;51.992;4.476;2023-12-14T08:09:58;6.24;;;6.23;;
69837;SDS011;57135;51.992;4.476;2023-12-14T08:12:24;6.62;;;6.58;;
69837;SDS011;57135;51.992;4.476;2023-12-14T08:14:50;6.73;;;6.69;;
69837;SDS011;57135;51.992;4.476;2023-12-14T08:17:16;7.19;;;7.16;;
69837;SDS011;57135;51.992;4.476;2023-12-14T08:19:42;8.06;;;8.02;;
69837;SDS011;57135;51.992;4.476;2023-12-14T08:22:08;7.87;;;7.84;;
69837;SDS011;57135;51.992;4.476;2023-12-14T08:24:36;6.92;;;6.88;;
69837;SDS011;57135;51.992;4.476;2023-12-14T08:27:02;6.88;;;6.84;;
69837;SDS011;57135;51.992;4.476;2023-12-14T08:29:28;7.31;;;7.21;;
69837;SDS011;57135;51.992;4.476;2023-12-14T08:31:54;6.74;;;6.71;;
69837;SDS011;57135;51.992;4.476;2023-12-14T08:34:25;10.07;;;9.99;;
69837;SDS011;57135;51.992;4.476;2023-12-14T08:36:51;11.42;;;11.37;;
69837;SDS011;57135;51.992;4.476;2023-12-14T08:39:17;8.27;;;8.24;;
69837;SDS011;57135;51.992;4.476;2023-12-14T08:41:42;7.64;;;7.61;;
69837;SDS011;57135;51.992;4.476;2023-12-14T08:44:10;7.58;;;7.52;;
69837;SDS011;57135;51.992;4.476;2023-12-14T08:46:41;7.70;;;7.60;;
69837;SDS011;57135;51.992;4.476;2023-12-14T08:49:08;7.28;;;7.21;;
69837;SDS011;57135;51.992;4.476;2023-12-14T08:51:33;6.85;;;6.80;;
69837;SDS011;57135;51.992;4.476;2023-12-14T08:53:59;6.72;;;6.68;;
69837;SDS011;57135;51.992;4.476;2023-12-14T08:56:24;7.35;;;7.31;;
69837;SDS011;57135;51.992;4.476;2023-12-14T08:58:50;6.79;;;6.72;;
69837;SDS011;57135;51.992;4.476;2023-12-14T09:01:19;6.91;;;6.88;;
69837;SDS011;57135;51.992;4.476;2023-12-14T09:03:46;7.31;;;7.28;;
69837;SDS011;57135;51.992;4.476;2023-12-14T09:06:11;6.90;;;6.88;;
69837;SDS011;57135;51.992;4.476;2023-12-14T09:08:37;7.12;;;7.10;;
69837;SDS011;57135;51.992;4.476;2023-12-14T09:11:02;6.82;;;6.76;;
69837;SDS011;57135;51.992;4.476;2023-12-14T09:13:29;7.14;;;7.10;;
69837;SDS011;57135;51.992;4.476;2023-12-14T09:15:54;7.63;;;7.56;;
69837;SDS011;57135;51.992;4.476;2023-12-14T09:18:20;7.74;;;7.68;;
69837;SDS011;57135;51.992;4.476;2023-12-14T09:20:48;7.26;;;7.25;;
69837;SDS011;57135;51.992;4.476;2023-12-14T09:23:15;7.50;;;7.44;;
69837;SDS011;57135;51.992;4.476;2023-12-14T09:25:41;7.26;;;7.23;;
69837;SDS011;57135;51.992;4.476;2023-12-14T09:28:06;7.34;;;7.33;;
69837;SDS011;57135;51.992;4.476;2023-12-14T09:30:32;7.04;;;7.04;;
69837;SDS011;57135;51.992;4.476;2023-12-14T09:32:58;7.71;;;7.70;;
69837;SDS011;57135;51.992;4.476;2023-12-14T09:35:23;7.71;;;7.64;;
69837;SDS011;57135;51.992;4.476;2023-12-14T09:37:49;7.85;;;7.78;;
69837;SDS011;57135;51.992;4.476;2023-12-14T09:40:15;7.85;;;7.78;;
69837;SDS011;57135;51.992;4.476;2023-12-14T09:42:43;7.96;;;7.92;;
69837;SDS011;57135;51.992;4.476;2023-12-14T09:45:09;8.24;;;8.16;;
69837;SDS011;57135;51.992;4.476;2023-12-14T09:47:36;7.84;;;7.78;;
69837;SDS011;57135;51.992;4.476;2023-12-14T09:50:03;7.53;;;7.51;;
69837;SDS011;57135;51.992;4.476;2023-12-14T09:52:30;7.34;;;7.30;;
69837;SDS011;57135;51.992;4.476;2023-12-14T09:54:56;7.46;;;7.43;;
69837;SDS011;57135;51.992;4.476;2023-12-14T09:57:21;7.55;;;7.54;;
69837;SDS011;57135;51.992;4.476;2023-12-14T09:59:54;7.47;;;7.46;;
69837;SDS011;57135;51.992;4.476;2023-12-14T10:02:20;7.47;;;7.43;;
69837;SDS011;57135;51.992;4.476;2023-12-14T10:04:50;7.65;;;7.62;;
69837;SDS011;57135;51.992;4.476;2023-12-14T10:07:16;7.59;;;7.56;;
69837;SDS011;57135;51.992;4.476;2023-12-14T10:09:42;8.01;;;7.99;;
69837;SDS011;57135;51.992;4.476;2023-12-14T10:12:08;7.90;;;7.87;;
69837;SDS011;57135;51.992;4.476;2023-12-14T10:14:34;7.73;;;7.67;;
69837;SDS011;57135;51.992;4.476;2023-12-14T10:17:14;7.73;;;7.65;;
69837;SDS011;57135;51.992;4.476;2023-12-14T10:19:43;7.71;;;7.64;;
69837;SDS011;57135;51.992;4.476;2023-12-14T10:22:09;7.84;;;7.83;;
69837;SDS011;57135;51.992;4.476;2023-12-14T10:24:35;7.74;;;7.74;;
69837;SDS011;57135;51.992;4.476;2023-12-14T10:27:10;7.74;;;7.70;;
69837;SDS011;57135;51.992;4.476;2023-12-14T10:29:39;7.86;;;7.77;;
69837;SDS011;57135;51.992;4.476;2023-12-14T10:32:06;7.99;;;7.95;;
69837;SDS011;57135;51.992;4.476;2023-12-14T10:34:33;8.04;;;7.96;;
69837;SDS011;57135;51.992;4.476;2023-12-14T10:37:00;7.91;;;7.83;;
69837;SDS011;57135;51.992;4.476;2023-12-14T10:39:26;7.46;;;7.43;;
69837;SDS011;57135;51.992;4.476;2023-12-14T10:41:54;7.88;;;7.82;;
69837;SDS011;57135;51.992;4.476;2023-12-14T10:44:23;7.65;;;7.60;;
69837;SDS011;57135;51.992;4.476;2023-12-14T10:46:55;7.70;;;7.67;;
69837;SDS011;57135;51.992;4.476;2023-12-14T10:49:22;7.69;;;7.68;;
69837;SDS011;57135;51.992;4.476;2023-12-14T10:51:49;7.73;;;7.67;;
69837;SDS011;57135;51.992;4.476;2023-12-14T10:54:17;7.66;;;7.58;;
69837;SDS011;57135;51.992;4.476;2023-12-14T10:56:44;7.47;;;7.44;;
69837;SDS011;57135;51.992;4.476;2023-12-14T10:59:09;7.73;;;7.66;;
69837;SDS011;57135;51.992;4.476;2023-12-14T11:01:35;7.83;;;7.72;;
69837;SDS011;57135;51.992;4.476;2023-12-14T11:04:05;8.21;;;8.09;;
69837;SDS011;57135;51.992;4.476;2023-12-14T11:06:32;7.53;;;7.45;;
69837;SDS011;57135;51.992;4.476;2023-12-14T11:09:06;7.50;;;7.45;;
69837;SDS011;57135;51.992;4.476;2023-12-14T11:14:34;7.69;;;7.60;;
69837;SDS011;57135;51.992;4.476;2023-12-14T11:17:06;7.83;;;7.82;;
69837;SDS011;57135;51.992;4.476;2023-12-14T11:22:55;7.71;;;7.63;;
69837;SDS011;57135;51.992;4.476;2023-12-14T11:25:20;7.71;;;7.68;;
69837;SDS011;57135;51.992;4.476;2023-12-14T11:27:49;7.55;;;7.53;;
69837;SDS011;57135;51.992;4.476;2023-12-14T11:30:15;7.70;;;7.65;;
69837;SDS011;57135;51.992;4.476;2023-12-14T11:32:41;7.77;;;7.64;;
69837;SDS011;57135;51.992;4.476;2023-12-14T11:35:07;7.33;;;7.24;;
69837;SDS011;57135;51.992;4.476;2023-12-14T11:37:35;7.67;;;7.61;;
69837;SDS011;57135;51.992;4.476;2023-12-14T11:40:01;7.67;;;7.58;;
69837;SDS011;57135;51.992;4.476;2023-12-14T11:42:30;8.29;;;8.19;;
69837;SDS011;57135;51.992;4.476;2023-12-14T11:44:56;8.27;;;8.19;;
69837;SDS011;57135;51.992;4.476;2023-12-14T11:47:22;8.98;;;8.87;;
69837;SDS011;57135;51.992;4.476;2023-12-14T11:49:47;9.65;;;9.51;;
69837;SDS011;57135;51.992;4.476;2023-12-14T11:52:13;10.15;;;10.05;;
69837;SDS011;57135;51.992;4.476;2023-12-14T11:54:39;9.61;;;9.56;;
69837;SDS011;57135;51.992;4.476;2023-12-14T11:57:04;9.76;;;9.68;;
69837;SDS011;57135;51.992;4.476;2023-12-14T11:59:34;9.84;;;9.66;;
69837;SDS011;57135;51.992;4.476;2023-12-14T12:02:01;9.96;;;9.82;;
69837;SDS011;57135;51.992;4.476;2023-12-14T12:04:27;10.51;;;10.32;;
69837;SDS011;57135;51.992;4.476;2023-12-14T12:07:00;9.83;;;9.62;;
69837;SDS011;57135;51.992;4.476;2023-12-14T12:09:32;9.70;;;9.51;;
69837;SDS011;57135;51.992;4.476;2023-12-14T12:12:04;9.54;;;9.47;;
69837;SDS011;57135;51.992;4.476;2023-12-14T12:14:31;8.12;;;7.98;;
69837;SDS011;57135;51.992;4.476;2023-12-14T12:16:57;7.51;;;7.39;;
69837;SDS011;57135;51.992;4.476;2023-12-14T12:19:22;7.58;;;7.44;;
69837;SDS011;57135;51.992;4.476;2023-12-14T12:21:47;7.44;;;7.41;;
69837;SDS011;57135;51.992;4.476;2023-12-14T12:24:13;8.57;;;8.52;;
69837;SDS011;57135;51.992;4.476;2023-12-14T12:26:38;9.51;;;9.39;;
69837;SDS011;57135;51.992;4.476;2023-12-14T12:29:04;10.04;;;9.95;;
69837;SDS011;57135;51.992;4.476;2023-12-14T12:31:31;9.57;;;9.49;;
69837;SDS011;57135;51.992;4.476;2023-12-14T12:33:58;7.98;;;7.95;;
69837;SDS011;57135;51.992;4.476;2023-12-14T12:36:23;7.29;;;7.25;;
69837;SDS011;57135;51.992;4.476;2023-12-14T12:38:49;6.54;;;6.51;;
69837;SDS011;57135;51.992;4.476;2023-12-14T12:41:14;7.27;;;7.19;;
69837;SDS011;57135;51.992;4.476;2023-12-14T12:43:40;8.13;;;8.07;;
69837;SDS011;57135;51.992;4.476;2023-12-14T12:46:05;8.66;;;8.60;;
69837;SDS011;57135;51.992;4.476;2023-12-14T12:48:31;8.58;;;8.56;;
69837;SDS011;57135;51.992;4.476;2023-12-14T12:50:56;9.44;;;9.33;;
69837;SDS011;57135;51.992;4.476;2023-12-14T12:53:22;9.82;;;9.70;;
69837;SDS011;57135;51.992;4.476;2023-12-14T12:55:47;9.71;;;9.53;;
69837;SDS011;57135;51.992;4.476;2023-12-14T12:58:13;10.19;;;10.00;;
69837;SDS011;57135;51.992;4.476;2023-12-14T13:00:39;9.65;;;9.53;;
69837;SDS011;57135;51.992;4.476;2023-12-14T13:03:05;9.90;;;9.82;;
69837;SDS011;57135;51.992;4.476;2023-12-14T13:05:31;9.81;;;9.78;;
69837;SDS011;57135;51.992;4.476;2023-12-14T13:07:56;9.42;;;9.30;;
69837;SDS011;57135;51.992;4.476;2023-12-14T13:10:22;9.25;;;9.13;;
69837;SDS011;57135;51.992;4.476;2023-12-14T13:12:52;9.06;;;8.99;;
69837;SDS011;57135;51.992;4.476;2023-12-14T13:15:18;8.64;;;8.62;;
69837;SDS011;57135;51.992;4.476;2023-12-14T13:17:44;9.11;;;9.08;;
69837;SDS011;57135;51.992;4.476;2023-12-14T13:20:09;8.91;;;8.87;;
69837;SDS011;57135;51.992;4.476;2023-12-14T13:22:35;8.69;;;8.64;;
69837;SDS011;57135;51.992;4.476;2023-12-14T13:25:00;8.73;;;8.69;;
69837;SDS011;57135;51.992;4.476;2023-12-14T13:27:26;8.73;;;8.71;;
69837;SDS011;57135;51.992;4.476;2023-12-14T13:29:51;8.48;;;8.46;;
69837;SDS011;57135;51.992;4.476;2023-12-14T13:32:16;7.79;;;7.77;;
69837;SDS011;57135;51.992;4.476;2023-12-14T13:34:42;7.56;;;7.51;;
69837;SDS011;57135;51.992;4.476;2023-12-14T13:37:11;7.37;;;7.33;;
69837;SDS011;57135;51.992;4.476;2023-12-14T13:39:36;6.96;;;6.95;;
69837;SDS011;57135;51.992;4.476;2023-12-14T13:42:05;7.19;;;7.16;;
69837;SDS011;57135;51.992;4.476;2023-12-14T13:44:31;7.09;;;7.07;;
69837;SDS011;57135;51.992;4.476;2023-12-14T13:47:04;6.88;;;6.85;;
69837;SDS011;57135;51.992;4.476;2023-12-14T13:49:46;6.88;;;6.85;;
69837;SDS011;57135;51.992;4.476;2023-12-14T13:52:11;5.85;;;5.83;;
69837;SDS011;57135;51.992;4.476;2023-12-14T13:54:37;6.40;;;6.39;;
69837;SDS011;57135;51.992;4.476;2023-12-14T13:57:02;6.43;;;6.41;;
69837;SDS011;57135;51.992;4.476;2023-12-14T13:59:28;5.97;;;5.92;;
69837;SDS011;57135;51.992;4.476;2023-12-14T14:01:53;5.63;;;5.60;;
69837;SDS011;57135;51.992;4.476;2023-12-14T14:04:19;5.89;;;5.80;;
69837;SDS011;57135;51.992;4.476;2023-12-14T14:06:44;5.93;;;5.83;;
69837;SDS011;57135;51.992;4.476;2023-12-14T14:09:10;5.98;;;5.96;;
69837;SDS011;57135;51.992;4.476;2023-12-14T14:11:37;5.84;;;5.83;;
69837;SDS011;57135;51.992;4.476;2023-12-14T14:14:03;5.98;;;5.97;;
69837;SDS011;57135;51.992;4.476;2023-12-14T14:16:29;5.82;;;5.80;;
69837;SDS011;57135;51.992;4.476;2023-12-14T14:18:54;5.81;;;5.76;;
69837;SDS011;57135;51.992;4.476;2023-12-14T14:21:20;5.89;;;5.84;;
69837;SDS011;57135;51.992;4.476;2023-12-14T14:23:45;5.55;;;5.49;;
69837;SDS011;57135;51.992;4.476;2023-12-14T14:26:11;5.82;;;5.75;;
69837;SDS011;57135;51.992;4.476;2023-12-14T14:28:36;5.26;;;5.22;;
69837;SDS011;57135;51.992;4.476;2023-12-14T14:31:02;5.13;;;5.08;;
69837;SDS011;57135;51.992;4.476;2023-12-14T14:33:27;4.99;;;4.97;;
69837;SDS011;57135;51.992;4.476;2023-12-14T14:35:53;5.23;;;5.15;;
69837;SDS011;57135;51.992;4.476;2023-12-14T14:38:18;5.37;;;5.33;;
69837;SDS011;57135;51.992;4.476;2023-12-14T14:40:44;5.04;;;5.02;;
69837;SDS011;57135;51.992;4.476;2023-12-14T14:43:10;4.97;;;4.94;;
69837;SDS011;57135;51.992;4.476;2023-12-14T14:45:36;4.63;;;4.60;;
69837;SDS011;57135;51.992;4.476;2023-12-14T14:48:03;4.69;;;4.64;;
69837;SDS011;57135;51.992;4.476;2023-12-14T14:50:31;4.61;;;4.58;;
69837;SDS011;57135;51.992;4.476;2023-12-14T14:52:58;4.53;;;4.49;;
69837;SDS011;57135;51.992;4.476;2023-12-14T14:55:23;4.36;;;4.30;;
69837;SDS011;57135;51.992;4.476;2023-12-14T14:57:50;4.43;;;4.37;;
69837;SDS011;57135;51.992;4.476;2023-12-14T15:00:17;4.39;;;4.34;;
69837;SDS011;57135;51.992;4.476;2023-12-14T15:02:43;4.94;;;4.88;;
69837;SDS011;57135;51.992;4.476;2023-12-14T15:05:09;4.55;;;4.46;;
69837;SDS011;57135;51.992;4.476;2023-12-14T15:07:34;4.33;;;4.27;;
69837;SDS011;57135;51.992;4.476;2023-12-14T15:10:00;4.17;;;4.16;;
69837;SDS011;57135;51.992;4.476;2023-12-14T15:12:25;4.40;;;4.39;;
69837;SDS011;57135;51.992;4.476;2023-12-14T15:14:50;4.10;;;4.09;;
69837;SDS011;57135;51.992;4.476;2023-12-14T15:17:16;3.88;;;3.83;;
69837;SDS011;57135;51.992;4.476;2023-12-14T15:19:44;3.70;;;3.65;;
69837;SDS011;57135;51.992;4.476;2023-12-14T15:22:11;3.33;;;3.29;;
69837;SDS011;57135;51.992;4.476;2023-12-14T15:24:38;3.44;;;3.38;;
69837;SDS011;57135;51.992;4.476;2023-12-14T15:27:04;3.25;;;3.19;;
69837;SDS011;57135;51.992;4.476;2023-12-14T15:29:30;3.49;;;3.45;;
69837;SDS011;57135;51.992;4.476;2023-12-14T15:31:55;3.19;;;3.16;;
69837;SDS011;57135;51.992;4.476;2023-12-14T15:34:20;3.11;;;3.07;;
69837;SDS011;57135;51.992;4.476;2023-12-14T15:36:46;3.05;;;2.99;;